M I D A S
Marine Information and Data Acquisition System
Tripno 693 of the Zeeleeuw from 2004-04-13 07:03:55 to 2004-04-13 14:33:18
Back to CruiseResearch ActivitiesStationsMapUnderway DataData graphs

EquipmentUnitsComments
TimeDGPSUTC
LatitudeDGPSDM.mWGS84
LongitudeDGPSDM.mWGS84
SpeedMeteo Stationm/sRelative wind speed
DirectionMeteo StationdegRelative wind direction
TemperatureMeteo Stationdeg CelciusAir temperature
PressureMeteo StationPaAtmospheric pressure
HumidityMeteo Station%Relative humidity
Missing or incorrect values are displayed as -999
Metereological data collected by the RV Zeeleeuw from 2004-04-13 07:03:55 to 2004-04-13 14:33:18
                                                                                    Next 1000 lines
Time Latitude Longitude Speed Direction Temperature Pressure Humidity
2004-04-13 07:04:01 51°13.596 2°56.101 1.7 43 8.6 102360 89
2004-04-13 07:04:06 51°13.596 2°56.101 1.6 319 8.6 102370 89
2004-04-13 07:04:11 51°13.596 2°56.101 1.1 330 8.6 102370 89
2004-04-13 07:04:16 51°13.596 2°56.101 1 324 8.7 102370 89
2004-04-13 07:04:21 51°13.596 2°56.101 1.1 318 8.7 102370 89
2004-04-13 07:04:26 51°13.596 2°56.101 1.2 336 8.7 102370 89
2004-04-13 07:04:31 51°13.595 2°56.101 1.3 330 8.7 102370 89
2004-04-13 07:04:35 51°13.595 2°56.101 1.3 327 8.7 102360 89
2004-04-13 07:04:41 51°13.595 2°56.101 1.7 297 8.7 102360 89
2004-04-13 07:04:45 51°13.596 2°56.1 1.1 290 8.7 102360 89
2004-04-13 07:04:51 51°13.596 2°56.097 0.8 255 8.7 102360 89
2004-04-13 07:04:55 51°13.597 2°56.094 1.2 253 8.7 102370 89
2004-04-13 07:05:01 51°13.598 2°56.089 1.2 255 8.7 102370 89
2004-04-13 07:05:06 51°13.599 2°56.084 0.9 251 8.7 102360 89
2004-04-13 07:05:11 51°13.6 2°56.079 1.4 207 8.7 102360 89
2004-04-13 07:05:16 51°13.602 2°56.073 1.6 216 8.7 102370 89
2004-04-13 07:05:21 51°13.603 2°56.066 1.8 250 8.7 102370 89
2004-04-13 07:05:26 51°13.605 2°56.059 1.8 249 8.7 102360 89
2004-04-13 07:05:31 51°13.607 2°56.052 2 257 8.7 102360 89
2004-04-13 07:05:35 51°13.609 2°56.046 1.6 253 8.7 102360 89
2004-04-13 07:05:41 51°13.611 2°56.037 1.8 232 8.7 102360 89
2004-04-13 07:05:46 51°13.613 2°56.028 1.9 222 8.7 102360 89
2004-04-13 07:05:51 51°13.616 2°56.02 2.3 215 8.7 102360 89
2004-04-13 07:05:56 51°13.618 2°56.011 2.8 216 8.7 102360 88
2004-04-13 07:06:02 51°13.622 2°56 3.4 238 8.7 102360 88
2004-04-13 07:06:06 51°13.624 2°55.993 2.4 251 8.7 102360 88
2004-04-13 07:06:11 51°13.627 2°55.984 2.3 245 8.7 102360 88
2004-04-13 07:06:17 51°13.631 2°55.973 3 234 8.7 102360 88
2004-04-13 07:06:21 51°13.633 2°55.965 2.5 249 8.7 102360 88
2004-04-13 07:06:26 51°13.637 2°55.956 2.4 242 8.6 102360 88
2004-04-13 07:06:31 51°13.64 2°55.947 2.6 246 8.6 102360 88
2004-04-13 07:06:35 51°13.643 2°55.939 2.5 247 8.6 102360 88
2004-04-13 07:06:41 51°13.648 2°55.928 3.1 208 8.6 102360 88
2004-04-13 07:06:46 51°13.652 2°55.918 2.8 223 8.6 102360 88
2004-04-13 07:06:51 51°13.656 2°55.909 2.9 205 8.6 102360 88
2004-04-13 07:06:56 51°13.66 2°55.899 2.8 220 8.6 102360 88
2004-04-13 07:07:01 51°13.664 2°55.889 2.4 213 8.6 102360 88
2004-04-13 07:07:06 51°13.668 2°55.879 2.8 217 8.6 102360 88
2004-04-13 07:07:11 51°13.672 2°55.869 3.7 212 8.6 102360 88
2004-04-13 07:07:15 51°13.675 2°55.862 4 215 8.5 102360 88
2004-04-13 07:07:22 51°13.68 2°55.848 3.7 230 8.5 102360 88
2004-04-13 07:07:26 51°13.683 2°55.84 4 232 8.6 102360 88
2004-04-13 07:07:31 51°13.687 2°55.83 3.1 232 8.6 102360 88
2004-04-13 07:07:35 51°13.689 2°55.821 3.4 233 8.5 102360 88
2004-04-13 07:07:41 51°13.693 2°55.809 3.6 215 8.5 102360 88
2004-04-13 07:07:46 51°13.695 2°55.799 4.4 220 8.5 102370 88
2004-04-13 07:07:51 51°13.698 2°55.789 3.9 244 8.5 102370 88
2004-04-13 07:07:56 51°13.701 2°55.78 3.3 247 8.5 102360 88
2004-04-13 07:08:01 51°13.703 2°55.772 2.2 251 8.5 102360 88
2004-04-13 07:08:06 51°13.704 2°55.766 2.5 247 8.5 102360 88
2004-04-13 07:08:10 51°13.705 2°55.761 2.2 259 8.5 102360 88
2004-04-13 07:08:15 51°13.706 2°55.757 2.6 268 8.5 102360 88
2004-04-13 07:08:21 51°13.707 2°55.754 2.1 278 8.5 102360 88
2004-04-13 07:08:25 51°13.708 2°55.752 3 274 8.5 102360 88
2004-04-13 07:08:31 51°13.708 2°55.752 2.3 310 8.5 102360 88
2004-04-13 07:08:35 51°13.709 2°55.752 2.3 306 8.5 102360 88
2004-04-13 07:08:41 51°13.71 2°55.753 1.9 325 8.5 102360 88
2004-04-13 07:08:45 51°13.71 2°55.753 2.1 328 8.5 102360 88
2004-04-13 07:08:51 51°13.71 2°55.751 2.3 302 8.5 102360 88
2004-04-13 07:08:55 51°13.71 2°55.749 2 308 8.5 102370 88
2004-04-13 07:09:01 51°13.71 2°55.746 1.2 329 8.5 102370 88
2004-04-13 07:09:05 51°13.709 2°55.743 1.1 328 8.4 102360 88
2004-04-13 07:09:11 51°13.708 2°55.74 1.1 312 8.4 102360 88
2004-04-13 07:09:15 51°13.708 2°55.737 1.3 297 8.5 102370 88
2004-04-13 07:09:21 51°13.708 2°55.736 1.8 320 8.5 102370 88
2004-04-13 07:09:26 51°13.708 2°55.736 2.4 330 8.5 102360 88
2004-04-13 07:09:31 51°13.71 2°55.736 2.7 8 8.5 102360 88
2004-04-13 07:09:35 51°13.711 2°55.737 2.8 8 8.5 102360 88
2004-04-13 07:09:41 51°13.713 2°55.739 2.9 14 8.5 102360 88
2004-04-13 07:09:46 51°13.716 2°55.74 3 20 8.5 102370 88
2004-04-13 07:09:50 51°13.718 2°55.74 3.4 22 8.5 102370 88
2004-04-13 07:09:55 51°13.722 2°55.741 3.3 23 8.5 102370 88
2004-04-13 07:10:00 51°13.725 2°55.741 3.2 45 8.5 102370 88
2004-04-13 07:10:05 51°13.727 2°55.741 3 49 8.5 102370 88
2004-04-13 07:10:10 51°13.729 2°55.74 2.8 67 8.5 102370 88
2004-04-13 07:10:15 51°13.73 2°55.74 2.1 69 8.5 102360 88
2004-04-13 07:10:21 51°13.73 2°55.739 2.5 62 8.5 102360 88
2004-04-13 07:10:26 51°13.732 2°55.738 2.2 63 8.4 102370 88
2004-04-13 07:10:30 51°13.734 2°55.738 2.5 67 8.4 102370 88
2004-04-13 07:10:35 51°13.736 2°55.735 2.5 57 8.5 102370 88
2004-04-13 07:10:41 51°13.741 2°55.731 2.4 62 8.5 102370 88
2004-04-13 07:10:45 51°13.744 2°55.727 1.9 48 8.4 102370 88
2004-04-13 07:10:50 51°13.749 2°55.722 3.1 32 8.4 102370 88
2004-04-13 07:10:55 51°13.754 2°55.716 3.1 32 8.4 102370 88
2004-04-13 07:11:01 51°13.759 2°55.708 3.3 32 8.4 102370 88
2004-04-13 07:11:05 51°13.764 2°55.703 4.2 34 8.4 102370 88
2004-04-13 07:11:10 51°13.769 2°55.697 3.3 31 8.4 102370 88
2004-04-13 07:11:15 51°13.776 2°55.69 3.1 18 8.4 102360 88
2004-04-13 07:11:21 51°13.783 2°55.681 4 21 8.4 102360 88
2004-04-13 07:11:24 51°13.787 2°55.677 3.6 27 8.4 102360 88
2004-04-13 07:11:31 51°13.797 2°55.667 4 28 8.4 102360 88
2004-04-13 07:11:35 51°13.804 2°55.661 3.7 30 8.4 102360 88
2004-04-13 07:11:41 51°13.813 2°55.652 4.6 30 8.4 102360 88
2004-04-13 07:11:45 51°13.819 2°55.646 4.4 25 8.4 102360 88
2004-04-13 07:11:50 51°13.827 2°55.639 4.3 22 8.4 102360 88
2004-04-13 07:11:55 51°13.835 2°55.632 3.9 17 8.4 102360 88
2004-04-13 07:12:01 51°13.845 2°55.623 4.2 27 8.4 102360 88
2004-04-13 07:12:05 51°13.852 2°55.618 4.3 24 8.4 102360 88
2004-04-13 07:12:10 51°13.861 2°55.611 4.9 28 8.4 102360 88
2004-04-13 07:12:15 51°13.869 2°55.604 4.8 31 8.4 102370 88
2004-04-13 07:12:21 51°13.88 2°55.596 4.4 34 8.4 102370 88
2004-04-13 07:12:25 51°13.888 2°55.591 4.2 32 8.5 102370 88
2004-04-13 07:12:31 51°13.899 2°55.582 5.7 26 8.5 102370 88
2004-04-13 07:12:35 51°13.906 2°55.577 5.7 28 8.5 102360 88
2004-04-13 07:12:41 51°13.917 2°55.569 6.4 37 8.5 102360 88
2004-04-13 07:12:45 51°13.925 2°55.563 5.9 37 8.5 102360 88
2004-04-13 07:12:49 51°13.932 2°55.557 5.4 29 8.5 102360 88
2004-04-13 07:12:55 51°13.944 2°55.549 5.3 28 8.5 102360 88
2004-04-13 07:13:00 51°13.953 2°55.542 5.4 39 8.5 102360 88
2004-04-13 07:13:06 51°13.965 2°55.534 5.5 39 8.5 102360 88
2004-04-13 07:13:11 51°13.975 2°55.527 5.1 28 8.5 102360 88
2004-04-13 07:13:15 51°13.983 2°55.521 5.8 25 8.4 102360 88
2004-04-13 07:13:21 51°13.994 2°55.512 5.5 31 8.4 102360 88
2004-04-13 07:13:25 51°14.002 2°55.507 5.4 29 8.4 102360 88
2004-04-13 07:13:31 51°14.014 2°55.498 5.5 36 8.4 102360 88
2004-04-13 07:13:35 51°14.022 2°55.492 5.8 36 8.4 102360 88
2004-04-13 07:13:41 51°14.034 2°55.483 6 37 8.4 102360 88
2004-04-13 07:13:45 51°14.042 2°55.477 5.7 38 8.5 102360 88
2004-04-13 07:13:51 51°14.054 2°55.468 6.3 30 8.5 102360 88
2004-04-13 07:13:55 51°14.063 2°55.462 5.6 29 8.4 102360 88
2004-04-13 07:14:00 51°14.074 2°55.454 6.6 28 8.4 102360 88
2004-04-13 07:14:05 51°14.085 2°55.446 6.1 29 8.4 102360 88
2004-04-13 07:14:10 51°14.096 2°55.438 6.6 24 8.4 102360 88
2004-04-13 07:14:15 51°14.108 2°55.429 6.4 26 8.4 102360 88
2004-04-13 07:14:21 51°14.122 2°55.418 7.3 32 8.4 102360 88
2004-04-13 07:14:25 51°14.132 2°55.41 7.1 23 8.5 102360 88
2004-04-13 07:14:31 51°14.147 2°55.399 6.9 22 8.5 102360 88
2004-04-13 07:14:35 51°14.157 2°55.391 7.5 29 8.4 102360 88
2004-04-13 07:14:41 51°14.173 2°55.378 7 29 8.4 102360 88
2004-04-13 07:14:43 51°14.178 2°55.373 7.5 32 8.4 102350 88
2004-04-13 07:14:51 51°14.197 2°55.353 7.6 34 8.4 102350 88
2004-04-13 07:14:55 51°14.207 2°55.342 7.6 36 8.4 102350 88
2004-04-13 07:15:01 51°14.222 2°55.326 6.7 34 8.4 102350 88
2004-04-13 07:15:05 51°14.232 2°55.314 7.3 35 8.4 102350 88
2004-04-13 07:15:10 51°14.244 2°55.299 7 36 8.4 102350 88
2004-04-13 07:15:15 51°14.255 2°55.283 6.8 36 8.4 102350 88
2004-04-13 07:15:21 51°14.268 2°55.263 6.5 35 8.4 102350 88
2004-04-13 07:15:25 51°14.276 2°55.248 6.5 38 8.4 102350 88
2004-04-13 07:15:30 51°14.286 2°55.23 5.9 40 8.4 102350 88
2004-04-13 07:15:35 51°14.296 2°55.211 6.2 36 8.4 102340 88
2004-04-13 07:15:41 51°14.308 2°55.187 6 40 8.4 102340 88
2004-04-13 07:15:45 51°14.315 2°55.171 6.1 40 8.4 102350 88
2004-04-13 07:15:51 51°14.326 2°55.146 6.2 32 8.4 102350 88
2004-04-13 07:15:55 51°14.333 2°55.128 6.6 36 8.3 102350 88
2004-04-13 07:15:59 51°14.34 2°55.111 6.5 16 8.3 102350 88
2004-04-13 07:16:05 51°14.351 2°55.084 6.4 32 8.3 102350 88
2004-04-13 07:16:10 51°14.359 2°55.062 6.5 38 8.3 102350 88
2004-04-13 07:16:15 51°14.367 2°55.038 6.8 36 8.3 102350 88
2004-04-13 07:16:21 51°14.377 2°55.01 6.9 40 8.3 102350 88
2004-04-13 07:16:25 51°14.384 2°54.991 7.2 37 8.3 102340 88
2004-04-13 07:16:30 51°14.394 2°54.968 7.3 37 8.3 102340 88
2004-04-13 07:16:36 51°14.407 2°54.942 7.5 35 8.3 102350 88
2004-04-13 07:16:41 51°14.418 2°54.921 7.5 37 8.3 102350 88
2004-04-13 07:16:46 51°14.431 2°54.901 7.3 37 8.3 102350 88
2004-04-13 07:16:50 51°14.441 2°54.886 7.7 32 8.3 102350 88
2004-04-13 07:16:55 51°14.455 2°54.868 8.6 36 8.3 102350 88
2004-04-13 07:17:00 51°14.47 2°54.852 8.6 35 8.3 102350 88
2004-04-13 07:17:06 51°14.489 2°54.835 9.2 34 8.3 102340 88
2004-04-13 07:17:11 51°14.505 2°54.821 9 33 8.3 102340 88
2004-04-13 07:17:15 51°14.518 2°54.811 8.9 33 8.3 102340 88
2004-04-13 07:17:21 51°14.539 2°54.797 9 30 8.3 102340 88
2004-04-13 07:17:25 51°14.553 2°54.79 9.5 28 8.3 102350 88
2004-04-13 07:17:30 51°14.571 2°54.783 10.1 26 8.3 102350 88
2004-04-13 07:17:35 51°14.59 2°54.777 9.8 24 8.3 102330 88
2004-04-13 07:17:41 51°14.613 2°54.774 10.3 22 8.3 102330 88
2004-04-13 07:17:45 51°14.628 2°54.774 10.2 24 8.3 102330 88
2004-04-13 07:17:51 51°14.651 2°54.776 10.3 23 8.3 102330 88
2004-04-13 07:17:55 51°14.666 2°54.779 10.6 22 8.3 102330 88
2004-04-13 07:18:01 51°14.69 2°54.785 10.3 21 8.3 102330 88
2004-04-13 07:18:06 51°14.709 2°54.791 11 20 8.3 102330 88
2004-04-13 07:18:11 51°14.728 2°54.799 10.5 20 8.3 102330 88
2004-04-13 07:18:15 51°14.743 2°54.806 10.5 20 8.2 102320 88
2004-04-13 07:18:21 51°14.766 2°54.817 11.1 19 8.2 102320 88
2004-04-13 07:18:26 51°14.785 2°54.828 11.2 18 8.3 102320 88
2004-04-13 07:18:31 51°14.803 2°54.839 10.6 18 8.3 102320 88
2004-04-13 07:18:35 51°14.818 2°54.848 10.7 18 8.2 102340 88
2004-04-13 07:18:41 51°14.841 2°54.861 11 15 8.2 102340 88
2004-04-13 07:18:45 51°14.856 2°54.87 10.8 15 8.2 102330 88
2004-04-13 07:18:50 51°14.875 2°54.88 11.3 19 8.2 102330 88
2004-04-13 07:18:55 51°14.894 2°54.888 10.6 18 8.2 102330 88
2004-04-13 07:19:01 51°14.917 2°54.898 10.9 19 8.2 102330 88
2004-04-13 07:19:05 51°14.932 2°54.904 10.1 18 8.2 102330 88
2004-04-13 07:19:11 51°14.956 2°54.914 10.3 20 8.2 102330 88
2004-04-13 07:19:15 51°14.971 2°54.92 9.9 18 8.2 102320 88
2004-04-13 07:19:21 51°14.994 2°54.927 10.6 18 8.2 102320 88
2004-04-13 07:19:26 51°15.014 2°54.932 10.3 19 8.2 102350 88
2004-04-13 07:19:31 51°15.034 2°54.937 10.8 20 8.2 102350 88
2004-04-13 07:19:35 51°15.05 2°54.94 11 19 8.2 102330 88
2004-04-13 07:19:41 51°15.073 2°54.945 10.6 19 8.2 102330 88
2004-04-13 07:19:45 51°15.089 2°54.949 11 19 8.3 102330 88
2004-04-13 07:19:51 51°15.113 2°54.954 10.5 20 8.3 102330 88
2004-04-13 07:19:55 51°15.128 2°54.958 10.5 20 8.3 102330 88
2004-04-13 07:20:01 51°15.152 2°54.963 10.7 20 8.3 102330 88
2004-04-13 07:20:05 51°15.168 2°54.966 10.1 22 8.2 102330 88
2004-04-13 07:20:10 51°15.187 2°54.97 10.6 22 8.2 102330 88
2004-04-13 07:20:15 51°15.207 2°54.974 10.5 21 8.3 102340 88
2004-04-13 07:20:21 51°15.23 2°54.979 10.7 19 8.3 102340 88
2004-04-13 07:20:25 51°15.246 2°54.983 10.5 18 8.2 102330 88
2004-04-13 07:20:31 51°15.27 2°54.988 10.2 21 8.2 102330 88
2004-04-13 07:20:35 51°15.285 2°54.99 10.4 21 8.2 102330 88
2004-04-13 07:20:41 51°15.309 2°54.993 10.4 23 8.2 102330 88
2004-04-13 07:20:46 51°15.329 2°54.996 10.4 25 8.3 102330 88
2004-04-13 07:20:51 51°15.348 2°55 10.6 17 8.3 102330 88
2004-04-13 07:20:55 51°15.364 2°55.005 10.2 19 8.2 102340 88
2004-04-13 07:21:00 51°15.384 2°55.011 10.4 17 8.2 102340 88
2004-04-13 07:21:05 51°15.403 2°55.019 11 17 8.2 102340 88
2004-04-13 07:21:11 51°15.426 2°55.032 10.2 12 8.2 102340 88
2004-04-13 07:21:15 51°15.441 2°55.041 10.1 13 8.3 102340 88
2004-04-13 07:21:21 51°15.462 2°55.058 11.3 10 8.3 102340 88
2004-04-13 07:21:25 51°15.476 2°55.071 10.8 11 8.2 102350 88
2004-04-13 07:21:30 51°15.493 2°55.088 11.3 6 8.2 102350 88
2004-04-13 07:21:35 51°15.51 2°55.105 11.4 8 8.2 102350 88
2004-04-13 07:21:41 51°15.53 2°55.127 11.9 7 8.2 102350 88
2004-04-13 07:21:45 51°15.543 2°55.141 11.2 6 8.2 102360 88
2004-04-13 07:21:51 51°15.562 2°55.166 10.8 3 8.2 102360 88
2004-04-13 07:21:55 51°15.575 2°55.182 11 5 8.3 102350 88
2004-04-13 07:22:01 51°15.592 2°55.209 10.6 4 8.3 102350 88
2004-04-13 07:22:06 51°15.607 2°55.232 10.8 3 8.3 102350 88
2004-04-13 07:22:11 51°15.621 2°55.255 11.2 4 8.3 102350 88
2004-04-13 07:22:15 51°15.632 2°55.274 11.4 4 8.3 102370 88
2004-04-13 07:22:21 51°15.649 2°55.302 11.7 3 8.3 102370 88
2004-04-13 07:22:26 51°15.663 2°55.325 11.2 5 8.3 102360 88
2004-04-13 07:22:31 51°15.677 2°55.348 10.8 3 8.3 102360 88
2004-04-13 07:22:35 51°15.688 2°55.367 11 4 8.3 102360 88
2004-04-13 07:22:41 51°15.704 2°55.396 10.9 4 8.3 102360 88
2004-04-13 07:22:45 51°15.715 2°55.415 10.7 3 8.3 102360 88
2004-04-13 07:22:50 51°15.729 2°55.44 11 4 8.3 102360 88
2004-04-13 07:22:55 51°15.742 2°55.465 10.7 5 8.2 102350 88
2004-04-13 07:23:01 51°15.757 2°55.495 10.6 2 8.2 102350 88
2004-04-13 07:23:05 51°15.767 2°55.515 10.8 3 8.3 102360 88
2004-04-13 07:23:11 51°15.783 2°55.545 11 6 8.3 102360 88
2004-04-13 07:23:15 51°15.793 2°55.566 10.9 2 8.3 102360 88
2004-04-13 07:23:21 51°15.808 2°55.596 11.1 2 8.3 102360 88
2004-04-13 07:23:26 51°15.821 2°55.622 10.8 359 8.2 102350 88
2004-04-13 07:23:31 51°15.832 2°55.648 11.3 2 8.2 102350 88
2004-04-13 07:23:35 51°15.842 2°55.669 11.1 360 8.2 102350 88
2004-04-13 07:23:41 51°15.856 2°55.701 11.5 360 8.2 102350 88
2004-04-13 07:23:45 51°15.866 2°55.721 11.6 1 8.3 102360 88
2004-04-13 07:23:51 51°15.88 2°55.753 11 2 8.3 102360 88
2004-04-13 07:23:55 51°15.89 2°55.773 10.6 4 8.3 102360 88
2004-04-13 07:24:01 51°15.905 2°55.804 10.6 2 8.3 102360 88
2004-04-13 07:24:05 51°15.915 2°55.824 11 2 8.3 102360 88
2004-04-13 07:24:10 51°15.927 2°55.85 10.8 2 8.3 102360 88
2004-04-13 07:24:16 51°15.942 2°55.881 10.6 3 8.3 102360 88
2004-04-13 07:24:21 51°15.954 2°55.907 11.4 3 8.3 102360 88
2004-04-13 07:24:25 51°15.964 2°55.927 11.2 3 8.3 102360 88
2004-04-13 07:24:30 51°15.977 2°55.953 11.7 3 8.3 102360 88
2004-04-13 07:24:35 51°15.989 2°55.979 11.3 4 8.3 102360 88
2004-04-13 07:24:41 51°16.003 2°56.011 11.4   8.3 102360 88
2004-04-13 07:24:45 51°16.013 2°56.031 10.6 5 8.3 102360 88
2004-04-13 07:24:51 51°16.028 2°56.062 11   8.3 102360 88
2004-04-13 07:24:56 51°16.04 2°56.088 11.1 360 8.3 102350 88
2004-04-13 07:25:01 51°16.052 2°56.114 11   8.3 102350 88
2004-04-13 07:25:05 51°16.062 2°56.136 11.2 359 8.3 102350 88
2004-04-13 07:25:11 51°16.076 2°56.167 11.1 1 8.3 102350 88
2004-04-13 07:25:15 51°16.086 2°56.189 10.7   8.3 102360 88
2004-04-13 07:25:21 51°16.099 2°56.221 10.3 360 8.3 102360 88
2004-04-13 07:25:26 51°16.111 2°56.247 11   8.3 102360 88
2004-04-13 07:25:31 51°16.123 2°56.274 10.9 359 8.3 102360 88
2004-04-13 07:25:35 51°16.132 2°56.295 10.7   8.3 102360 88
2004-04-13 07:25:41 51°16.146 2°56.328 11 360 8.3 102360 88
2004-04-13 07:25:46 51°16.158 2°56.354 11   8.3 102350 88
2004-04-13 07:25:51 51°16.17 2°56.381 11.2 359 8.3 102350 88
2004-04-13 07:25:55 51°16.179 2°56.402 11.2   8.3 102350 88
2004-04-13 07:26:01 51°16.193 2°56.434 11.5 359 8.3 102350 88
2004-04-13 07:26:05 51°16.202 2°56.456 11.3   8.3 102360 88
2004-04-13 07:26:10 51°16.214 2°56.482 11.3 358 8.3 102360 88
2004-04-13 07:26:15 51°16.226 2°56.509 11.9   8.3 102360 88
2004-04-13 07:26:21 51°16.239 2°56.541 11.3 360 8.3 102360 88
2004-04-13 07:26:25 51°16.248 2°56.563 10.6 2 8.3 102360 88
2004-04-13 07:26:31 51°16.262 2°56.595 11 1 8.3 102360 88
2004-04-13 07:26:35 51°16.271 2°56.616 11.2 360 8.3 102360 88
2004-04-13 07:26:41 51°16.285 2°56.648 10.9 2 8.3 102360 88
2004-04-13 07:26:45 51°16.294 2°56.669 11.2 2 8.3 102360 88
2004-04-13 07:26:50 51°16.305 2°56.695 11.1 3 8.3 102360 88
2004-04-13 07:26:55 51°16.317 2°56.722 11.6 2 8.3 102360 88
2004-04-13 07:27:01 51°16.33 2°56.754 11.1 1 8.3 102360 88
2004-04-13 07:27:06 51°16.342 2°56.78 10.7 1 8.3 102360 88
2004-04-13 07:27:11 51°16.353 2°56.806 11 3 8.3 102360 88
2004-04-13 07:27:15 51°16.362 2°56.827 11.3 2 8.3 102360 88
2004-04-13 07:27:21 51°16.376 2°56.858 11.6 1 8.3 102360 88
2004-04-13 07:27:25 51°16.385 2°56.88 10.6 1 8.3 102360 88
2004-04-13 07:27:31 51°16.399 2°56.911 10.8 4 8.3 102360 88
2004-04-13 07:27:35 51°16.408 2°56.933 11.4 359 8.3 102360 88
2004-04-13 07:27:41 51°16.422 2°56.964 10.2 4 8.3 102360 88
2004-04-13 07:27:46 51°16.433 2°56.991 10.9 359 8.3 102360 88
2004-04-13 07:27:50 51°16.442 2°57.012 11.4 1 8.3 102360 88
2004-04-13 07:27:55 51°16.453 2°57.039 11.1 359 8.3 102360 88
2004-04-13 07:28:01 51°16.467 2°57.07 11.6   8.3 102360 88
2004-04-13 07:28:05 51°16.476 2°57.092 11.4 2 8.3 102360 88
2004-04-13 07:28:11 51°16.489 2°57.123 11.7 2 8.3 102360 88
2004-04-13 07:28:15 51°16.498 2°57.145 11.4 359 8.3 102370 88
2004-04-13 07:28:21 51°16.512 2°57.177 11.5   8.3 102370 88
2004-04-13 07:28:25 51°16.522 2°57.198 11.4 358 8.3 102360 88
2004-04-13 07:28:31 51°16.535 2°57.229 11.3   8.3 102360 88
2004-04-13 07:28:35 51°16.545 2°57.251 11.2 359 8.3 102360 88
2004-04-13 07:28:41 51°16.558 2°57.283 11.7 359 8.3 102360 88
2004-04-13 07:28:46 51°16.57 2°57.309 11.3   8.3 102360 88
2004-04-13 07:28:51 51°16.581 2°57.336 11.2 360 8.3 102360 88
2004-04-13 07:28:56 51°16.593 2°57.362 10.9 360 8.3 102370 88
2004-04-13 07:29:01 51°16.604 2°57.389 10.9 360 8.3 102370 88
2004-04-13 07:29:05 51°16.613 2°57.41 11.2 359 8.3 102360 88
2004-04-13 07:29:10 51°16.625 2°57.437 11.5 358 8.3 102360 88
2004-04-13 07:29:15 51°16.636 2°57.463 11.3 359 8.3 102360 88
2004-04-13 07:29:21 51°16.65 2°57.495 11 358 8.3 102360 88
2004-04-13 07:29:26 51°16.661 2°57.522 11.9 359 8.3 102360 88
2004-04-13 07:29:31 51°16.673 2°57.548 11.2 359 8.3 102360 88
2004-04-13 07:29:35 51°16.682 2°57.57 11.8 358 8.3 102360 88
2004-04-13 07:29:41 51°16.695 2°57.602 11.8 358 8.3 102360 88
2004-04-13 07:29:45 51°16.704 2°57.623 11.2 358 8.3 102360 88
2004-04-13 07:29:51 51°16.718 2°57.655 11.1 357 8.3 102360 88
2004-04-13 07:29:56 51°16.729 2°57.682 11.2 358 8.3 102360 88
2004-04-13 07:30:01 51°16.741 2°57.708 11.1 2 8.3 102360 88
2004-04-13 07:30:06 51°16.752 2°57.735 11 1 8.3 102360 88
2004-04-13 07:30:10 51°16.761 2°57.756 11.3 1 8.3 102360 88
2004-04-13 07:30:15 51°16.773 2°57.783 11.8 360 8.3 102350 88
2004-04-13 07:30:21 51°16.786 2°57.815 11 2 8.3 102350 88
2004-04-13 07:30:25 51°16.795 2°57.837 12   8.3 102360 88
2004-04-13 07:30:31 51°16.809 2°57.868 11.1   8.3 102360 88
2004-04-13 07:30:35 51°16.818 2°57.889 11.7   8.3 102370 88
2004-04-13 07:30:41 51°16.832 2°57.921 11.1   8.3 102370 88
2004-04-13 07:30:45 51°16.841 2°57.942 11.6 1 8.3 102370 88
2004-04-13 07:30:51 51°16.855 2°57.975 11.6 3 8.3 102370 88
2004-04-13 07:30:55 51°16.864 2°57.996 11.5 3 8.3 102360 88
2004-04-13 07:31:01 51°16.877 2°58.028 11 360 8.3 102360 88
2004-04-13 07:31:05 51°16.886 2°58.05 11.4 360 8.3 102370 88
2004-04-13 07:31:11 51°16.9 2°58.082 11.1 359 8.3 102370 88
2004-04-13 07:31:15 51°16.909 2°58.102 11.2 1 8.3 102360 88
2004-04-13 07:31:20 51°16.92 2°58.129 10.9 1 8.3 102360 88
2004-04-13 07:31:26 51°16.935 2°58.161 10.8 359 8.3 102360 88
2004-04-13 07:31:30 51°16.944 2°58.182 12 1 8.3 102360 88
2004-04-13 07:31:35 51°16.955 2°58.208 11.5 1 8.3 102370 88
2004-04-13 07:31:41 51°16.968 2°58.24 11.9   8.3 102370 88
2004-04-13 07:31:46 51°16.98 2°58.267 11 1 8.3 102370 88
2004-04-13 07:31:50 51°16.989 2°58.288 11.9 360 8.3 102370 88
2004-04-13 07:31:55 51°17 2°58.315 11.4   8.3 102360 88
2004-04-13 07:32:01 51°17.013 2°58.346 11.4 1 8.3 102360 88
2004-04-13 07:32:05 51°17.022 2°58.368 11.2 1 8.3 102360 88
2004-04-13 07:32:10 51°17.034 2°58.394 11 1 8.3 102360 88
2004-04-13 07:32:15 51°17.045 2°58.421 11.7 360 8.3 102370 88
2004-04-13 07:32:21 51°17.059 2°58.453 10.7 2 8.3 102370 88
2004-04-13 07:32:26 51°17.07 2°58.479 10.9 3 8.3 102360 88
2004-04-13 07:32:30 51°17.079 2°58.501 10.7 360 8.3 102360 88
2004-04-13 07:32:35 51°17.09 2°58.527 10.8 1 8.3 102370 88
2004-04-13 07:32:40 51°17.102 2°58.554 11.2 1 8.3 102370 88
2004-04-13 07:32:45 51°17.113 2°58.58 10.9 358 8.3 102370 88
2004-04-13 07:32:51 51°17.127 2°58.612 11.3 359 8.3 102370 88
2004-04-13 07:32:55 51°17.136 2°58.633 11.6   8.3 102370 88
2004-04-13 07:33:01 51°17.149 2°58.665 12.2 2 8.3 102370 88
2004-04-13 07:33:05 51°17.158 2°58.687 11.7 1 8.3 102360 88
2004-04-13 07:33:11 51°17.172 2°58.719 11.6 360 8.3 102360 88
2004-04-13 07:33:15 51°17.181 2°58.74 11.6 359 8.3 102370 88
2004-04-13 07:33:21 51°17.194 2°58.772 11.7   8.3 102370 88
2004-04-13 07:33:25 51°17.203 2°58.793 11.6 359 8.3 102370 88
2004-04-13 07:33:31 51°17.216 2°58.825 11.3 1 8.3 102370 88
2004-04-13 07:33:35 51°17.225 2°58.846 11.9 360 8.3 102370 88
2004-04-13 07:33:41 51°17.239 2°58.878 11.2 2 8.3 102370 88
2004-04-13 07:33:45 51°17.248 2°58.899 11.2 3 8.3 102370 88
2004-04-13 07:33:50 51°17.259 2°58.926 11.7 3 8.3 102370 88
2004-04-13 07:33:55 51°17.271 2°58.953 11.6 2 8.3 102370 88
2004-04-13 07:34:01 51°17.284 2°58.985 11.5 5 8.3 102370 88
2004-04-13 07:34:05 51°17.293 2°59.007 11.7 3 8.3 102360 88
2004-04-13 07:34:10 51°17.304 2°59.034 11.7 358 8.3 102360 88
2004-04-13 07:34:15 51°17.315 2°59.061 11.6   8.3 102360 88
2004-04-13 07:34:21 51°17.329 2°59.094 11.3 2 8.3 102360 88
2004-04-13 07:34:26 51°17.341 2°59.12 11.9 3 8.3 102370 88
2004-04-13 07:34:31 51°17.352 2°59.147 11.6 3 8.3 102370 88
2004-04-13 07:34:35 51°17.361 2°59.169 11.9 3 8.3 102370 88
2004-04-13 07:34:41 51°17.375 2°59.201 12.3 1 8.3 102370 88
2004-04-13 07:34:45 51°17.384 2°59.223 11.5 3 8.3 102370 88
2004-04-13 07:34:51 51°17.398 2°59.255 12.2 1 8.3 102370 88
2004-04-13 07:34:55 51°17.407 2°59.276 12.3 2 8.3 102370 88
2004-04-13 07:35:01 51°17.42 2°59.309 11.3 1 8.3 102370 88
2004-04-13 07:35:05 51°17.43 2°59.33 12.4 1 8.3 102370 88
2004-04-13 07:35:11 51°17.444 2°59.362 12.4 3 8.3 102370 88
2004-04-13 07:35:15 51°17.453 2°59.383 12.1 2 8.3 102370 88
2004-04-13 07:35:21 51°17.466 2°59.416 12.3 3 8.3 102370 88
2004-04-13 07:35:25 51°17.475 2°59.438 12 2 8.3 102370 88
2004-04-13 07:35:31 51°17.489 2°59.469 11.9 1 8.3 102370 88
2004-04-13 07:35:35 51°17.498 2°59.491 12.3 359 8.3 102360 88
2004-04-13 07:35:41 51°17.512 2°59.523 12.5 2 8.3 102360 88
2004-04-13 07:35:46 51°17.523 2°59.55 11.5 1 8.3 102360 88
2004-04-13 07:35:51 51°17.535 2°59.577 12.4 1 8.3 102360 88
2004-04-13 07:35:55 51°17.544 2°59.599 11.1 1 8.3 102370 88
2004-04-13 07:36:01 51°17.558 2°59.631 11.3 359 8.3 102370 88
2004-04-13 07:36:05 51°17.567 2°59.653 11.5 359 8.3 102360 88
2004-04-13 07:36:11 51°17.58 2°59.685 10.9 359 8.3 102360 88
2004-04-13 07:36:15 51°17.589 2°59.707 10.8 2 8.3 102370 88
2004-04-13 07:36:21 51°17.603 2°59.739 11   8.3 102370 88
2004-04-13 07:36:26 51°17.614 2°59.766 12.1 3 8.3 102370 88
2004-04-13 07:36:31 51°17.626 2°59.793 12.1 5 8.3 102370 88
2004-04-13 07:36:35 51°17.635 2°59.814 12.1 3 8.3 102370 88
2004-04-13 07:36:41 51°17.649 2°59.847 11.8 3 8.3 102370 88
2004-04-13 07:36:45 51°17.658 2°59.868 11.2 2 8.3 102370 88
2004-04-13 07:36:50 51°17.669 2°59.895 11.4 360 8.3 102370 88
2004-04-13 07:36:55 51°17.68 2°59.922 11.8 1 8.3 102360 88
2004-04-13 07:37:01 51°17.694 2°59.955 12.3   8.3 102360 88
2004-04-13 07:37:05 51°17.702 2°59.976 11.9 359 8.3 102370 88
2004-04-13 07:37:11 51°17.716 3°0.009 11.1 1 8.3 102370 88
2004-04-13 07:37:15 51°17.725 3°0.031 11.6   8.3 102370 88
2004-04-13 07:37:21 51°17.738 3°0.063 11.5 360 8.3 102370 88
2004-04-13 07:37:25 51°17.747 3°0.085 11.4 360 8.3 102370 88
2004-04-13 07:37:31 51°17.761 3°0.117 11.3 359 8.3 102370 88
2004-04-13 07:37:35 51°17.77 3°0.138 11.1 2 8.3 102370 88
2004-04-13 07:37:41 51°17.784 3°0.17 10.7 3 8.3 102370 88
2004-04-13 07:37:45 51°17.793 3°0.193 11.9 2 8.4 102370 88
2004-04-13 07:37:51 51°17.806 3°0.225 11.6   8.4 102370 88
2004-04-13 07:37:55 51°17.815 3°0.246 11.4 357 8.4 102370 88
2004-04-13 07:38:01 51°17.828 3°0.279 11.8 359 8.4 102370 88
2004-04-13 07:38:05 51°17.837 3°0.3 11.2 357 8.4 102370 88
2004-04-13 07:38:11 51°17.85 3°0.332 10.8 358 8.4 102370 88
2004-04-13 07:38:16 51°17.862 3°0.359 11.9 357 8.4 102380 88
2004-04-13 07:38:21 51°17.873 3°0.385 12 359 8.4 102380 88
2004-04-13 07:38:26 51°17.884 3°0.412 12 360 8.4 102370 88
2004-04-13 07:38:31 51°17.896 3°0.439 11.6   8.4 102370 88
2004-04-13 07:38:35 51°17.905 3°0.461 11.6 2 8.4 102380 88
2004-04-13 07:38:41 51°17.918 3°0.493 12.3 1 8.4 102380 88
2004-04-13 07:38:46 51°17.929 3°0.52 12.2 1 8.4 102370 88
2004-04-13 07:38:50 51°17.938 3°0.542 11.4 358 8.4 102370 88
2004-04-13 07:38:55 51°17.949 3°0.569 12.3 358 8.4 102370 88
2004-04-13 07:39:01 51°17.963 3°0.601 10.9 359 8.4 102370 88
2004-04-13 07:39:05 51°17.972 3°0.622 11.1   8.4 102370 88
2004-04-13 07:39:11 51°17.985 3°0.655 11.7 3 8.4 102370 88
2004-04-13 07:39:15 51°17.994 3°0.676 11.8 3 8.4 102370 88
2004-04-13 07:39:21 51°18.008 3°0.708 11.9 1 8.4 102370 88
2004-04-13 07:39:26 51°18.02 3°0.735 11.9 359 8.4 102370 88
2004-04-13 07:39:31 51°18.031 3°0.762 11.3 1 8.4 102370 88
2004-04-13 07:39:35 51°18.04 3°0.783 11.5 2 8.4 102370 88
2004-04-13 07:39:41 51°18.053 3°0.816 11.3 3 8.4 102370 88
2004-04-13 07:39:46 51°18.064 3°0.844 12.1 1 8.4 102370 88
2004-04-13 07:39:51 51°18.075 3°0.871 11.4 2 8.4 102370 88
2004-04-13 07:39:56 51°18.086 3°0.897 11.2 358 8.4 102370 88
2004-04-13 07:40:01 51°18.097 3°0.925 10.9 2 8.4 102370 88
2004-04-13 07:40:05 51°18.106 3°0.946 11.3 2 8.4 102360 88
2004-04-13 07:40:10 51°18.117 3°0.973 11.4 3 8.4 102360 88
2004-04-13 07:40:15 51°18.13 3°0.999 11.5 4 8.4 102370 88
2004-04-13 07:40:21 51°18.144 3°1.032 11.5 2 8.4 102370 88
2004-04-13 07:40:26 51°18.155 3°1.059 11.9 6 8.4 102370 88
2004-04-13 07:40:31 51°18.166 3°1.085 12.6 1 8.4 102370 88
2004-04-13 07:40:36 51°18.177 3°1.112 12 2 8.4 102370 88
2004-04-13 07:40:41 51°18.189 3°1.139 11.8 2 8.4 102370 88
2004-04-13 07:40:45 51°18.198 3°1.161 11.9 3 8.4 102370 88
2004-04-13 07:40:51 51°18.211 3°1.193 11.4 3 8.4 102370 88
2004-04-13 07:40:55 51°18.22 3°1.215 11.1   8.4 102370 88
2004-04-13 07:40:59 51°18.229 3°1.236 11.9   8.4 102370 88
2004-04-13 07:41:05 51°18.243 3°1.268 11.5 2 8.4 102370 88
2004-04-13 07:41:10 51°18.254 3°1.295 11.5 1 8.4 102370 88
2004-04-13 07:41:15 51°18.266 3°1.322 12   8.4 102370 88
2004-04-13 07:41:21 51°18.28 3°1.353 11.8 1 8.4 102370 88
2004-04-13 07:41:25 51°18.289 3°1.375 11.6 1 8.4 102370 88
2004-04-13 07:41:30 51°18.3 3°1.402 11.3 3 8.4 102370 88
2004-04-13 07:41:36 51°18.314 3°1.433 11.5 3 8.4 102360 88
2004-04-13 07:41:41 51°18.326 3°1.46 11 2 8.4 102360 88
2004-04-13 07:41:45 51°18.335 3°1.481 11.8 4 8.4 102370 88
2004-04-13 07:41:50 51°18.346 3°1.508 11.6 2 8.4 102370 88
2004-04-13 07:41:55 51°18.358 3°1.534 11.7 3 8.4 102380 88
2004-04-13 07:42:01 51°18.372 3°1.566 10.9 4 8.4 102380 88
2004-04-13 07:42:05 51°18.381 3°1.588 11.8 2 8.4 102360 88
2004-04-13 07:42:11 51°18.395 3°1.62 11.7 4 8.4 102360 88
2004-04-13 07:42:15 51°18.405 3°1.641 12.4 5 8.4 102370 88
2004-04-13 07:42:21 51°18.419 3°1.672 11.6 4 8.4 102370 88
2004-04-13 07:42:25 51°18.428 3°1.693 11.8 8 8.4 102370 88
2004-04-13 07:42:30 51°18.439 3°1.72 12.2 5 8.4 102370 88
2004-04-13 07:42:35 51°18.451 3°1.747 12.1 4 8.4 102370 88
2004-04-13 07:42:41 51°18.464 3°1.779 11.7 3 8.4 102370 88
2004-04-13 07:42:46 51°18.475 3°1.806 11.8 4 8.4 102370 88
2004-04-13 07:42:50 51°18.485 3°1.827 11.5 4 8.4 102370 88
2004-04-13 07:42:55 51°18.496 3°1.854 11.5 3 8.4 102370 88
2004-04-13 07:43:01 51°18.509 3°1.887 11.4 1 8.4 102370 88
2004-04-13 07:43:05 51°18.518 3°1.908 11.9 4 8.4 102370 88
2004-04-13 07:43:11 51°18.532 3°1.94 11.7 5 8.4 102370 88
2004-04-13 07:43:15 51°18.541 3°1.962 11.5 3 8.4 102370 88
2004-04-13 07:43:21 51°18.555 3°1.993 11.8 4 8.4 102370 88
2004-04-13 07:43:25 51°18.564 3°2.014 11.7 6 8.4 102380 88
2004-04-13 07:43:30 51°18.576 3°2.041 11.5 5 8.4 102380 88
2004-04-13 07:43:35 51°18.588 3°2.068 11.7 4 8.4 102370 88
2004-04-13 07:43:41 51°18.602 3°2.1 12.1 6 8.4 102370 88
2004-04-13 07:43:45 51°18.611 3°2.122 12.1 6 8.4 102370 88
2004-04-13 07:43:50 51°18.622 3°2.148 12.2 5 8.4 102370 88
2004-04-13 07:43:55 51°18.633 3°2.175 11.6 3 8.5 102370 89
2004-04-13 07:44:01 51°18.647 3°2.208 11.5 3 8.5 102370 89
2004-04-13 07:44:05 51°18.656 3°2.229 11.7 4 8.4 102380 88
2004-04-13 07:44:10 51°18.667 3°2.256 12.2 1 8.4 102380 88
2004-04-13 07:44:15 51°18.679 3°2.283 11.4 3 8.4 102370 88
2004-04-13 07:44:21 51°18.693 3°2.315 12.2 4 8.4 102370 88
2004-04-13 07:44:26 51°18.704 3°2.342 12.3 4 8.5 102380 88
2004-04-13 07:44:31 51°18.716 3°2.369 11.5 2 8.5 102380 88
2004-04-13 07:44:36 51°18.727 3°2.396 11.7 1 8.5 102370 88
2004-04-13 07:44:41 51°18.739 3°2.423 11.7 2 8.5 102370 88
2004-04-13 07:44:46 51°18.75 3°2.449 12.1 359 8.4 102370 88
2004-04-13 07:44:51 51°18.762 3°2.476 11.8 1 8.4 102370 88
2004-04-13 07:44:55 51°18.771 3°2.498 12.1 2 8.4 102380 88
2004-04-13 07:45:01 51°18.784 3°2.53 11.8 359 8.4 102380 88
2004-04-13 07:45:06 51°18.795 3°2.558 12.8 1 8.4 102380 88
2004-04-13 07:45:11 51°18.806 3°2.585 11 360 8.4 102380 88
2004-04-13 07:45:15 51°18.814 3°2.608 11.7 358 8.4 102380 88
2004-04-13 07:45:21 51°18.827 3°2.64 11.7 360 8.4 102380 88
2004-04-13 07:45:26 51°18.838 3°2.668 11.3 358 8.4 102380 88
2004-04-13 07:45:31 51°18.849 3°2.695 11.4   8.4 102380 88
2004-04-13 07:45:36 51°18.861 3°2.722 11.5 2 8.4 102370 88
2004-04-13 07:45:41 51°18.872 3°2.749 11.5   8.4 102370 88
2004-04-13 07:45:45 51°18.881 3°2.77 11.4 2 8.4 102370 89
2004-04-13 07:45:51 51°18.895 3°2.802 11.7 2 8.4 102370 89
2004-04-13 07:45:55 51°18.905 3°2.823 11 5 8.5 102370 89
2004-04-13 07:46:01 51°18.918 3°2.855 11.7 2 8.5 102370 89
2004-04-13 07:46:05 51°18.927 3°2.876 11.4 1 8.5 102370 89
2004-04-13 07:46:11 51°18.941 3°2.908 11.9 360 8.5 102370 89
2004-04-13 07:46:15 51°18.95 3°2.93 11.4 2 8.5 102370 89
2004-04-13 07:46:21 51°18.963 3°2.962 11.5 1 8.5 102370 89
2004-04-13 07:46:25 51°18.972 3°2.984 11.7 1 8.5 102370 89
2004-04-13 07:46:31 51°18.986 3°3.016 11.7 2 8.5 102370 89
2004-04-13 07:46:35 51°18.995 3°3.038 11.6 4 8.5 102380 89
2004-04-13 07:46:41 51°19.008 3°3.07 11.9 3 8.5 102380 89
2004-04-13 07:46:46 51°19.02 3°3.096 11.7 1 8.5 102380 88
2004-04-13 07:46:51 51°19.031 3°3.123 11.6 360 8.5 102380 88
2004-04-13 07:46:55 51°19.04 3°3.144 11.3 1 8.4 102370 88
2004-04-13 07:47:01 51°19.054 3°3.177 11 358 8.4 102370 88
2004-04-13 07:47:06 51°19.065 3°3.203 11.2 357 8.5 102370 88
2004-04-13 07:47:11 51°19.076 3°3.23 10.8 358 8.5 102370 88
2004-04-13 07:47:15 51°19.085 3°3.252 11.1 358 8.5 102370 88
2004-04-13 07:47:21 51°19.098 3°3.284 10.6 358 8.5 102370 88
2004-04-13 07:47:25 51°19.107 3°3.306 11 1 8.4 102370 88
2004-04-13 07:47:31 51°19.121 3°3.338 12.1 1 8.4 102370 88
2004-04-13 07:47:35 51°19.13 3°3.359 11.9 1 8.4 102380 89
2004-04-13 07:47:41 51°19.143 3°3.392 10.9 358 8.4 102380 89
2004-04-13 07:47:45 51°19.152 3°3.413 11.7 360 8.5 102370 89
2004-04-13 07:47:50 51°19.163 3°3.44 11.5 2 8.5 102370 89
2004-04-13 07:47:55 51°19.174 3°3.467 11.5 358 8.5 102370 89
2004-04-13 07:48:01 51°19.188 3°3.499 11.2 1 8.5 102370 89
2004-04-13 07:48:06 51°19.2 3°3.525 11.1 1 8.5 102370 89
2004-04-13 07:48:10 51°19.209 3°3.547 11.6   8.5 102370 89
2004-04-13 07:48:15 51°19.22 3°3.574 11.4 360 8.5 102370 89
2004-04-13 07:48:21 51°19.233 3°3.606 11.8 360 8.5 102370 89
2004-04-13 07:48:26 51°19.244 3°3.633 11.5   8.4 102370 89
2004-04-13 07:48:31 51°19.255 3°3.66 11.8 1 8.4 102370 89
2004-04-13 07:48:36 51°19.266 3°3.687 11.7 4 8.5 102370 89
2004-04-13 07:48:41 51°19.278 3°3.714 11.6 3 8.5 102370 89
2004-04-13 07:48:46 51°19.289 3°3.741 11.6 3 8.5 102380 88
2004-04-13 07:48:50 51°19.298 3°3.762 12.2 6 8.5 102380 88
2004-04-13 07:48:55 51°19.309 3°3.789 11.3 4 8.4 102380 88
2004-04-13 07:49:01 51°19.323 3°3.821 11.8 4 8.4 102380 88
2004-04-13 07:49:05 51°19.332 3°3.842 12.2 2 8.4 102370 88
2004-04-13 07:49:10 51°19.343 3°3.869 12 2 8.4 102370 88
2004-04-13 07:49:15 51°19.355 3°3.895 11.7 3 8.4 102370 88
2004-04-13 07:49:21 51°19.368 3°3.927 11.9 5 8.4 102370 88
2004-04-13 07:49:25 51°19.378 3°3.948 12.5 5 8.4 102370 88
2004-04-13 07:49:31 51°19.391 3°3.981 11.8 6 8.4 102370 88
2004-04-13 07:49:35 51°19.4 3°4.002 12.2 5 8.3 102380 88
2004-04-13 07:49:41 51°19.413 3°4.035 12.4 4 8.3 102380 88
2004-04-13 07:49:45 51°19.422 3°4.056 12.2 6 8.3 102360 88
2004-04-13 07:49:51 51°19.436 3°4.089 12.1 4 8.3 102360 88
2004-04-13 07:49:55 51°19.444 3°4.11 12 3 8.3 102370 88
2004-04-13 07:50:01 51°19.458 3°4.143 11.7 5 8.3 102370 88
2004-04-13 07:50:05 51°19.467 3°4.164 12.1 3 8.3 102370 87
2004-04-13 07:50:11 51°19.48 3°4.197 11.5 5 8.3 102370 87
2004-04-13 07:50:15 51°19.489 3°4.218 12.2 5 8.3 102370 87
2004-04-13 07:50:21 51°19.503 3°4.251 11.8 4 8.3 102370 87
2004-04-13 07:50:26 51°19.514 3°4.277 12.3 3 8.3 102380 87
2004-04-13 07:50:31 51°19.525 3°4.305 11.5 4 8.3 102380 87
2004-04-13 07:50:35 51°19.534 3°4.326 11.9 4 8.3 102380 87
2004-04-13 07:50:41 51°19.547 3°4.359 12 5 8.3 102380 87
2004-04-13 07:50:46 51°19.559 3°4.386 12.1 6 8.3 102380 87
2004-04-13 07:50:51 51°19.57 3°4.413 12.4 5 8.3 102380 87
2004-04-13 07:50:55 51°19.579 3°4.435 11.9 5 8.3 102370 87
2004-04-13 07:50:59 51°19.588 3°4.457 11.1 4 8.3 102370 87
2004-04-13 07:51:06 51°19.604 3°4.494 12 6 8.3 102370 87
2004-04-13 07:51:10 51°19.613 3°4.516 11.2 4 8.3 102370 87
2004-04-13 07:51:16 51°19.626 3°4.549 11.6 3 8.3 102370 87
2004-04-13 07:51:21 51°19.637 3°4.576 12 5 8.3 102370 87
2004-04-13 07:51:25 51°19.645 3°4.598 12.3 9 8.3 102380 87
2004-04-13 07:51:31 51°19.658 3°4.631 11.2 4 8.3 102380 87
2004-04-13 07:51:35 51°19.667 3°4.653 11.7 3 8.3 102370 87
2004-04-13 07:51:41 51°19.68 3°4.686 11.8 4 8.3 102370 87
2004-04-13 07:51:45 51°19.689 3°4.708 11.9 5 8.3 102370 87
2004-04-13 07:51:51 51°19.702 3°4.74 12.1 6 8.3 102370 87
2004-04-13 07:51:55 51°19.711 3°4.761 11.8 6 8.3 102370 87
2004-04-13 07:52:01 51°19.725 3°4.794 11.8   8.3 102370 87
2004-04-13 07:52:06 51°19.736 3°4.82 11.6 3 8.3 102370 87
2004-04-13 07:52:10 51°19.745 3°4.842 11.6 1 8.3 102370 87
2004-04-13 07:52:15 51°19.757 3°4.869 11.2 3 8.3 102380 87
2004-04-13 07:52:21 51°19.77 3°4.901 11.7 5 8.3 102380 87
2004-04-13 07:52:26 51°19.781 3°4.929 11.6 7 8.3 102380 87
2004-04-13 07:52:30 51°19.789 3°4.95 12.1 5 8.3 102380 87
2004-04-13 07:52:35 51°19.8 3°4.978 11.4 3 8.3 102380 87
2004-04-13 07:52:41 51°19.814 3°5.01 11.3 5 8.3 102380 87
2004-04-13 07:52:45 51°19.822 3°5.032 11.9 5 8.3 102370 87
2004-04-13 07:52:51 51°19.836 3°5.064 12.4 4 8.3 102370 87
2004-04-13 07:52:55 51°19.845 3°5.085 11.6 6 8.3 102360 86
2004-04-13 07:53:01 51°19.859 3°5.117 11.7 4 8.3 102360 86
2004-04-13 07:53:05 51°19.868 3°5.139 11 3 8.3 102370 86
2004-04-13 07:53:11 51°19.882 3°5.171 11.4 5 8.3 102370 86
2004-04-13 07:53:15 51°19.89 3°5.193 11 1 8.3 102380 86
2004-04-13 07:53:21 51°19.904 3°5.225 10.9 1 8.3 102380 86
2004-04-13 07:53:25 51°19.913 3°5.246 11.8 2 8.3 102370 86
2004-04-13 07:53:31 51°19.926 3°5.279 11.3 3 8.3 102370 86
2004-04-13 07:53:35 51°19.935 3°5.301 11.1 5 8.3 102380 86
2004-04-13 07:53:41 51°19.948 3°5.334 11.4 5 8.3 102380 86
2004-04-13 07:53:45 51°19.957 3°5.355 11.4 6 8.3 102380 86
2004-04-13 07:53:51 51°19.97 3°5.387 11.4 7 8.3 102380 86
2004-04-13 07:53:55 51°19.979 3°5.409 11.6 5 8.4 102380 86
2004-04-13 07:54:01 51°19.993 3°5.44 11.1 8 8.4 102380 86
2004-04-13 07:54:05 51°20.003 3°5.462 11.6 5 8.4 102380 86
2004-04-13 07:54:11 51°20.017 3°5.493 11.7 4 8.4 102380 86
2004-04-13 07:54:15 51°20.026 3°5.514 11.9 4 8.4 102380 86
2004-04-13 07:54:21 51°20.039 3°5.546 11 5 8.4 102380 86
2004-04-13 07:54:26 51°20.05 3°5.574 11.4 7 8.4 102380 86
2004-04-13 07:54:31 51°20.061 3°5.601 11.2 5 8.4 102380 86
2004-04-13 07:54:35 51°20.07 3°5.623 10.7 3 8.4 102380 86
2004-04-13 07:54:41 51°20.082 3°5.655 11.5 5 8.4 102380 86
2004-04-13 07:54:45 51°20.091 3°5.677 11.7 7 8.3 102380 86
2004-04-13 07:54:51 51°20.104 3°5.71 11.4 8 8.3 102380 86
2004-04-13 07:54:56 51°20.115 3°5.737 11.3 6 8.4 102370 86
2004-04-13 07:55:01 51°20.127 3°5.763 11.5 6 8.4 102370 86
2004-04-13 07:55:05 51°20.136 3°5.785 11.9 7 8.3 102370 85
2004-04-13 07:55:10 51°20.147 3°5.811 11.8 2 8.3 102370 85
2004-04-13 07:55:15 51°20.158 3°5.838 11.4 4 8.3 102380 85
2004-04-13 07:55:21 51°20.171 3°5.87 11.3 5 8.3 102380 85
2004-04-13 07:55:25 51°20.18 3°5.892 11.2 3 8.3 102370 85
2004-04-13 07:55:30 51°20.191 3°5.919 11.1 3 8.3 102370 85
2004-04-13 07:55:36 51°20.204 3°5.952 11 2 8.3 102380 85
2004-04-13 07:55:41 51°20.215 3°5.979 11.5 3 8.3 102380 85
2004-04-13 07:55:46 51°20.226 3°6.006 10.8 5 8.3 102380 85
2004-04-13 07:55:51 51°20.237 3°6.033 11.3 5 8.3 102380 85
2004-04-13 07:55:55 51°20.246 3°6.055 11.3 5 8.3 102380 85
2004-04-13 07:56:01 51°20.259 3°6.087 11.4 3 8.3 102380 85
2004-04-13 07:56:06 51°20.27 3°6.114 11.7 6 8.3 102380 85
2004-04-13 07:56:11 51°20.281 3°6.141 11.4 4 8.3 102380 85
2004-04-13 07:56:15 51°20.29 3°6.162 11.7 7 8.4 102380 85
2004-04-13 07:56:21 51°20.303 3°6.195 10.8 4 8.4 102380 85
2004-04-13 07:56:25 51°20.312 3°6.216 11.1 4 8.4 102380 85
2004-04-13 07:56:31 51°20.325 3°6.248 10.6 4 8.4 102380 85
2004-04-13 07:56:35 51°20.334 3°6.27 10.7 2 8.3 102380 85
2004-04-13 07:56:41 51°20.348 3°6.302 10.9 3 8.3 102380 85
2004-04-13 07:56:46 51°20.359 3°6.329 10.7 2 8.4 102370 85
2004-04-13 07:56:51 51°20.37 3°6.356 11.1 6 8.4 102370 85
2004-04-13 07:56:55 51°20.379 3°6.377 10.7 5 8.4 102380 85
2004-04-13 07:57:01 51°20.393 3°6.408 11.4 2 8.4 102380 85
2004-04-13 07:57:05 51°20.403 3°6.427 12.2 5 8.4 102380 85
2004-04-13 07:57:11 51°20.419 3°6.457 12.1 6 8.4 102380 85
2004-04-13 07:57:15 51°20.429 3°6.476 11.7 8 8.4 102380 85
2004-04-13 07:57:21 51°20.446 3°6.504 12.1 6 8.4 102380 85
2004-04-13 07:57:25 51°20.456 3°6.524 11.7 4 8.4 102380 85
2004-04-13 07:57:31 51°20.472 3°6.552 11.1 5 8.4 102380 85
2004-04-13 07:57:35 51°20.483 3°6.571 10.8 6 8.4 102380 85
2004-04-13 07:57:41 51°20.499 3°6.599 11.4 5 8.4 102380 85
2004-04-13 07:57:46 51°20.512 3°6.623 11.8 3 8.4 102370 85
2004-04-13 07:57:51 51°20.525 3°6.647 11.2 3 8.4 102370 85
2004-04-13 07:57:55 51°20.536 3°6.666 11.8 4 8.3 102370 85
2004-04-13 07:58:00 51°20.549 3°6.691 11.7 5 8.3 102370 85
2004-04-13 07:58:05 51°20.563 3°6.715 11.5 5 8.3 102380 85
2004-04-13 07:58:11 51°20.579 3°6.743 11.8 4 8.3 102380 85
2004-04-13 07:58:15 51°20.589 3°6.763 11.9 5 8.3 102370 84
2004-04-13 07:58:21 51°20.606 3°6.791 11.4 8 8.3 102370 84
2004-04-13 07:58:26 51°20.619 3°6.816 11.3 7 8.3 102380 84
2004-04-13 07:58:31 51°20.632 3°6.84 11.2 8 8.3 102380 84
2004-04-13 07:58:35 51°20.643 3°6.859 10.7 7 8.3 102380 84
2004-04-13 07:58:41 51°20.659 3°6.888 11.6 7 8.3 102380 84
2004-04-13 07:58:45 51°20.669 3°6.907 11.2 5 8.3 102370 84
2004-04-13 07:58:51 51°20.685 3°6.937 11.4 5 8.3 102370 84
2004-04-13 07:58:56 51°20.698 3°6.961 11.8 5 8.3 102380 84
2004-04-13 07:59:01 51°20.711 3°6.986 11.7 8 8.3 102380 84
2004-04-13 07:59:06 51°20.725 3°7.01 11.6 6 8.4 102380 84
2004-04-13 07:59:10 51°20.735 3°7.029 12.1 8 8.4 102380 84
2004-04-13 07:59:15 51°20.749 3°7.053 11.2 8 8.3 102380 84
2004-04-13 07:59:21 51°20.765 3°7.082 11.1 7 8.3 102380 84
2004-04-13 07:59:25 51°20.775 3°7.101 11.5 6 8.3 102370 84
2004-04-13 07:59:31 51°20.792 3°7.13 11.3 5 8.3 102370 84
2004-04-13 07:59:35 51°20.803 3°7.149 11.3 4 8.3 102380 84
2004-04-13 07:59:41 51°20.819 3°7.178 10.9 6 8.3 102380 84
2004-04-13 07:59:46 51°20.832 3°7.202 10.8 6 8.4 102380 84
2004-04-13 07:59:51 51°20.846 3°7.226 11.7 4 8.4 102380 84
2004-04-13 07:59:55 51°20.856 3°7.245 11 4 8.3 102370 84
2004-04-13 08:00:01 51°20.872 3°7.274 12.2 4 8.3 102370 84
2004-04-13 08:00:05 51°20.882 3°7.294 11.8 4 8.4 102380 84
2004-04-13 08:00:11 51°20.898 3°7.324 11.8 6 8.4 102380 84
2004-04-13 08:00:15 51°20.908 3°7.343 11.8 7 8.4 102380 84
2004-04-13 08:00:21 51°20.924 3°7.373 11.5 8 8.4 102380 84
2004-04-13 08:00:26 51°20.937 3°7.397 11.3 7 8.4 102380 84
2004-04-13 08:00:31 51°20.95 3°7.421 11.6 6 8.4 102380 84
2004-04-13 08:00:35 51°20.961 3°7.44 11.4 6 8.4 102380 84
2004-04-13 08:00:41 51°20.977 3°7.469 12.2 5 8.4 102380 84
2004-04-13 08:00:46 51°20.991 3°7.493 11.7 3 8.4 102390 84
2004-04-13 08:00:51 51°21.004 3°7.517 11.9 3 8.4 102390 84
2004-04-13 08:00:55 51°21.014 3°7.536 11.2 4 8.4 102380 84
2004-04-13 08:01:01 51°21.03 3°7.565 11.9 3 8.4 102380 84
2004-04-13 08:01:05 51°21.04 3°7.585 11.6 5 8.4 102380 84
2004-04-13 08:01:11 51°21.056 3°7.614 11.8 3 8.4 102380 84
2004-04-13 08:01:15 51°21.066 3°7.633 11.5 1 8.4 102370 83
2004-04-13 08:01:21 51°21.083 3°7.662 11.8 3 8.4 102370 83
2004-04-13 08:01:26 51°21.096 3°7.686 11.5 2 8.4 102380 83
2004-04-13 08:01:31 51°21.11 3°7.71 11.5 4 8.4 102380 83
2004-04-13 08:01:35 51°21.12 3°7.729 12.4 1 8.4 102380 84
2004-04-13 08:01:41 51°21.136 3°7.758 11.7 4 8.4 102380 84
2004-04-13 08:01:46 51°21.149 3°7.782 11.6 1 8.4 102380 84
2004-04-13 08:01:51 51°21.161 3°7.808 10.7 357 8.4 102380 84
2004-04-13 08:01:55 51°21.171 3°7.829 11.3 1 8.4 102380 84
2004-04-13 08:02:01 51°21.185 3°7.86 11.2 360 8.4 102380 84
2004-04-13 08:02:05 51°21.193 3°7.882 11 1 8.4 102380 84
2004-04-13 08:02:11 51°21.206 3°7.914 11.5 2 8.4 102380 84
2004-04-13 08:02:15 51°21.214 3°7.936 11.8 2 8.4 102390 84
2004-04-13 08:02:21 51°21.227 3°7.968 11.2 3 8.4 102390 84
2004-04-13 08:02:26 51°21.238 3°7.995 11.5 3 8.4 102380 84
2004-04-13 08:02:31 51°21.249 3°8.022 11.2 2 8.4 102380 84
2004-04-13 08:02:35 51°21.258 3°8.043 11 3 8.5 102380 84
2004-04-13 08:02:41 51°21.273 3°8.075 12 2 8.5 102380 84
2004-04-13 08:02:46 51°21.284 3°8.102 10.6 4 8.5 102380 84
2004-04-13 08:02:51 51°21.295 3°8.128 11.8 4 8.5 102380 84
2004-04-13 08:02:55 51°21.305 3°8.149 11.1 1 8.4 102380 83
2004-04-13 08:03:01 51°21.319 3°8.181 11.8 4 8.4 102380 83
2004-04-13 08:03:05 51°21.328 3°8.203 11.5 4 8.4 102380 83
2004-04-13 08:03:11 51°21.341 3°8.235 12.1 2 8.4 102380 83
2004-04-13 08:03:15 51°21.349 3°8.257 12.1 2 8.4 102380 83
2004-04-13 08:03:21 51°21.363 3°8.289 11.3 4 8.4 102380 83
2004-04-13 08:03:26 51°21.374 3°8.316 11.9 3 8.4 102380 83
2004-04-13 08:03:31 51°21.386 3°8.343 12.4 2 8.4 102380 83
2004-04-13 08:03:35 51°21.395 3°8.364 11.8 2 8.5 102390 83
2004-04-13 08:03:41 51°21.41 3°8.397 11.9 1 8.5 102390 83
2004-04-13 08:03:46 51°21.421 3°8.424 12 3 8.4 102380 83
2004-04-13 08:03:51 51°21.433 3°8.451 11.2 1 8.4 102380 83
2004-04-13 08:03:55 51°21.442 3°8.472 11.8 1 8.4 102390 83
2004-04-13 08:04:01 51°21.456 3°8.504 11.2 2 8.4 102390 83
2004-04-13 08:04:05 51°21.465 3°8.526 11.6 3 8.5 102380 83
2004-04-13 08:04:11 51°21.479 3°8.558 10.9 2 8.5 102380 83
2004-04-13 08:04:15 51°21.489 3°8.58 11.7 2 8.4 102380 83
2004-04-13 08:04:21 51°21.502 3°8.613 11.1 1 8.4 102380 83
2004-04-13 08:04:26 51°21.512 3°8.64 10.6 3 8.5 102390 83
2004-04-13 08:04:31 51°21.522 3°8.668 10.9 1 8.5 102390 83
2004-04-13 08:04:35 51°21.531 3°8.69 10.9 359 8.5 102380 83
2004-04-13 08:04:41 51°21.543 3°8.724 11.7 3 8.5 102380 83
2004-04-13 08:04:46 51°21.552 3°8.752 11.5 1 8.5 102390 83
2004-04-13 08:04:51 51°21.562 3°8.78 11.2   8.5 102390 83
2004-04-13 08:04:55 51°21.57 3°8.802 12 1 8.5 102380 83
2004-04-13 08:05:01 51°21.582 3°8.836 11.7 1 8.5 102380 83
2004-04-13 08:05:05 51°21.59 3°8.859 11.3   8.5 102380 83
2004-04-13 08:05:11 51°21.601 3°8.892 11.2 360 8.5 102380 83
2004-04-13 08:05:15 51°21.609 3°8.915 11.9 358 8.5 102380 83
2004-04-13 08:05:21 51°21.621 3°8.949 11.5 358 8.5 102380 83
2004-04-13 08:05:26 51°21.631 3°8.977 11 2 8.5 102390 83
2004-04-13 08:05:31 51°21.641 3°9.004 11.3 1 8.5 102390 83
2004-04-13 08:05:35 51°21.649 3°9.027 11.7 359 8.5 102380 83
2004-04-13 08:05:41 51°21.662 3°9.06 11.1 357 8.5 102380 83
2004-04-13 08:05:46 51°21.672 3°9.087 12 359 8.5 102380 83
2004-04-13 08:05:51 51°21.682 3°9.115 11.9 1 8.5 102380 83
2004-04-13 08:05:56 51°21.693 3°9.142 11.6 360 8.5 102380 83
2004-04-13 08:06:01 51°21.703 3°9.17 11.5   8.5 102380 83
2004-04-13 08:06:06 51°21.713 3°9.198 11.4 1 8.5 102380 83
2004-04-13 08:06:11 51°21.723 3°9.225 11.4 359 8.5 102380 83
2004-04-13 08:06:15 51°21.732 3°9.247 11.7 357 8.5 102380 83
2004-04-13 08:06:21 51°21.744 3°9.281 11.1 360 8.5 102380 83
2004-04-13 08:06:25 51°21.752 3°9.303 11.5 359 8.5 102380 83
2004-04-13 08:06:31 51°21.764 3°9.336 12.4 359 8.5 102380 83
2004-04-13 08:06:35 51°21.772 3°9.359 12.1 358 8.5 102380 83
2004-04-13 08:06:41 51°21.784 3°9.392 12.2 360 8.5 102380 83
2004-04-13 08:06:46 51°21.794 3°9.42 11.6 359 8.5 102380 83
2004-04-13 08:06:51 51°21.805 3°9.448 11.8   8.5 102380 83
2004-04-13 08:06:55 51°21.813 3°9.47 11 359 8.5 102390 83
2004-04-13 08:07:01 51°21.825 3°9.503 11.2 359 8.5 102390 83
2004-04-13 08:07:05 51°21.833 3°9.525 11.6 358 8.5 102390 83
2004-04-13 08:07:11 51°21.846 3°9.559 11 359 8.5 102390 83
2004-04-13 08:07:15 51°21.854 3°9.581 11.1 358 8.5 102390 83
2004-04-13 08:07:21 51°21.866 3°9.615 12.1 359 8.5 102390 83
2004-04-13 08:07:26 51°21.876 3°9.642 11.6 359 8.5 102380 83
2004-04-13 08:07:31 51°21.886 3°9.67 11.7 359 8.5 102380 83
2004-04-13 08:07:35 51°21.894 3°9.692 10.6 359 8.5 102390 83
2004-04-13 08:07:41 51°21.907 3°9.726 11.3 359 8.5 102390 83
2004-04-13 08:07:46 51°21.917 3°9.753 11.1 1 8.5 102380 83
2004-04-13 08:07:51 51°21.927 3°9.781 11.1 2 8.5 102380 83
2004-04-13 08:07:55 51°21.936 3°9.805 11.4 359 8.5 102380 83
2004-04-13 08:08:01 51°21.949 3°9.841 11.5 358 8.5 102380 83
2004-04-13 08:08:05 51°21.957 3°9.864 11.7 357 8.5 102390 83
2004-04-13 08:08:11 51°21.969 3°9.9 12.1 357 8.5 102390 83
2004-04-13 08:08:15 51°21.976 3°9.923 11.4 355 8.5 102390 83
2004-04-13 08:08:21 51°21.987 3°9.956 11.9 355 8.5 102390 83
2004-04-13 08:08:26 51°21.996 3°9.984 12.5 355 8.5 102380 83
2004-04-13 08:08:31 51°22.004 3°10.012 11.2 357 8.5 102380 83
2004-04-13 08:08:35 51°22.011 3°10.033 11.4 355 8.5 102390 83
2004-04-13 08:08:41 51°22.021 3°10.065 11.8 357 8.5 102390 83
2004-04-13 08:08:46 51°22.03 3°10.093 11.5 357 8.5 102380 83
2004-04-13 08:08:51 51°22.039 3°10.121 11.8   8.5 102380 83
2004-04-13 08:08:55 51°22.046 3°10.144 11.4 359 8.5 102380 83
2004-04-13 08:09:01 51°22.057 3°10.178 11.5 359 8.5 102380 83
2004-04-13 08:09:05 51°22.064 3°10.201 11.6 358 8.5 102390 83
2004-04-13 08:09:11 51°22.075 3°10.235 11.6 357 8.5 102390 83
2004-04-13 08:09:15 51°22.082 3°10.257 11.6 357 8.5 102380 83
2004-04-13 08:09:21 51°22.092 3°10.292 11.5 358 8.5 102380 83
2004-04-13 08:09:26 51°22.1 3°10.321 11.1 354 8.5 102380 83
2004-04-13 08:09:31 51°22.107 3°10.351 11.7 354 8.5 102380 83
2004-04-13 08:09:35 51°22.111 3°10.375 12 353 8.5 102390 83
2004-04-13 08:09:41 51°22.119 3°10.411 11.4 351 8.5 102390 83
2004-04-13 08:09:45 51°22.123 3°10.436 11.6 353 8.5 102390 83
2004-04-13 08:09:51 51°22.13 3°10.472 10.8 352 8.5 102390 83
2004-04-13 08:09:55 51°22.135 3°10.497 10.6 355 8.6 102380 83
2004-04-13 08:10:01 51°22.141 3°10.534 11.3 352 8.6 102380 83
2004-04-13 08:10:06 51°22.147 3°10.565 11.5 352 8.5 102380 83
2004-04-13 08:10:11 51°22.153 3°10.596 11.4 353 8.5 102380 83
2004-04-13 08:10:16 51°22.159 3°10.626 10.4 353 8.5 102380 83
2004-04-13 08:10:21 51°22.164 3°10.656 11.5 354 8.5 102380 83
2004-04-13 08:10:25 51°22.169 3°10.681 10.8 351 8.5 102380 83
2004-04-13 08:10:31 51°22.176 3°10.718 10.8 355 8.5 102380 83
2004-04-13 08:10:35 51°22.18 3°10.742 11.7 358 8.6 102380 83
2004-04-13 08:10:41 51°22.187 3°10.779 11.7 353 8.6 102380 83
2004-04-13 08:10:45 51°22.191 3°10.804 11.4 354 8.6 102380 83
2004-04-13 08:10:51 51°22.198 3°10.84 11.5 358 8.6 102380 83
2004-04-13 08:10:55 51°22.203 3°10.865 10.9 353 8.6 102380 83
2004-04-13 08:11:01 51°22.21 3°10.902 12 356 8.6 102380 83
2004-04-13 08:11:06 51°22.215 3°10.932 11.8 353 8.6 102390 83
2004-04-13 08:11:11 51°22.221 3°10.963 11.6 353 8.6 102390 83
2004-04-13 08:11:15 51°22.226 3°10.987 11.5 352 8.6 102380 83
2004-04-13 08:11:21 51°22.233 3°11.024 11 353 8.6 102380 83
2004-04-13 08:11:26 51°22.239 3°11.054 10.9 353 8.6 102380 83
2004-04-13 08:11:31 51°22.245 3°11.085 10.5 354 8.6 102380 83
2004-04-13 08:11:35 51°22.25 3°11.109 11.2 356 8.6 102380 83
2004-04-13 08:11:41 51°22.257 3°11.145 10.7 355 8.6 102380 83
2004-04-13 08:11:46 51°22.262 3°11.176 11.2 354 8.6 102390 83
2004-04-13 08:11:51 51°22.268 3°11.207 10.5 354 8.6 102390 83
2004-04-13 08:11:55 51°22.273 3°11.231 11.1 353 8.6 102380 83
2004-04-13 08:12:01 51°22.28 3°11.268 11 353 8.6 102380 83
2004-04-13 08:12:06 51°22.286 3°11.298 11.8 354 8.6 102390 83
2004-04-13 08:12:11 51°22.292 3°11.329 11.4 352 8.6 102390 83
2004-04-13 08:12:15 51°22.296 3°11.353 10.9 353 8.6 102390 83
2004-04-13 08:12:21 51°22.304 3°11.39 10.8 357 8.6 102390 83
2004-04-13 08:12:26 51°22.309 3°11.421 10.9 357 8.6 102390 83
2004-04-13 08:12:30 51°22.314 3°11.445 11 357 8.6 102390 83
2004-04-13 08:12:35 51°22.32 3°11.476 11.1 355 8.6 102390 83
2004-04-13 08:12:41 51°22.327 3°11.513 11.1 354 8.6 102390 83
2004-04-13 08:12:46 51°22.333 3°11.543 11.7 355 8.6 102390 83
2004-04-13 08:12:51 51°22.339 3°11.574 11.3 357 8.6 102390 83
2004-04-13 08:12:55 51°22.344 3°11.598 11.1 354 8.6 102390 83
2004-04-13 08:13:01 51°22.351 3°11.635 10.9 355 8.6 102390 83
2004-04-13 08:13:06 51°22.357 3°11.666 11 354 8.6 102390 83
2004-04-13 08:13:11 51°22.363 3°11.697 11.5 356 8.6 102390 83
2004-04-13 08:13:15 51°22.368 3°11.721 11.1 354 8.6 102390 83
2004-04-13 08:13:21 51°22.374 3°11.759 11.3 355 8.6 102390 83
2004-04-13 08:13:26 51°22.38 3°11.79 10.4 354 8.6 102390 82
2004-04-13 08:13:31 51°22.384 3°11.821 10.6 355 8.6 102390 82
2004-04-13 08:13:35 51°22.387 3°11.847 11 354 8.6 102390 82
2004-04-13 08:13:41 51°22.392 3°11.884 11.1 353 8.6 102390 82
2004-04-13 08:13:46 51°22.397 3°11.916 10.7 354 8.6 102390 82
2004-04-13 08:13:51 51°22.401 3°11.947 10.9 354 8.6 102390 82
2004-04-13 08:13:56 51°22.405 3°11.979 10.7 353 8.6 102390 82
2004-04-13 08:14:01 51°22.409 3°12.01 11.3 351 8.6 102390 82
2004-04-13 08:14:06 51°22.414 3°12.042 10.9 355 8.6 102400 82
2004-04-13 08:14:11 51°22.418 3°12.074 10.8 352 8.6 102400 82
2004-04-13 08:14:15 51°22.421 3°12.099 11.2 350 8.6 102390 83
2004-04-13 08:14:21 51°22.427 3°12.137 11 352 8.6 102390 83
2004-04-13 08:14:26 51°22.43 3°12.169 10.6 353 8.6 102390 82
2004-04-13 08:14:31 51°22.435 3°12.201 10.4 356 8.6 102390 82
2004-04-13 08:14:35 51°22.438 3°12.226 10.1 351 8.6 102390 82
2004-04-13 08:14:41 51°22.443 3°12.264 11.2 355 8.6 102390 82
2004-04-13 08:14:45 51°22.446 3°12.289 11.4 353 8.6 102390 82
2004-04-13 08:14:51 51°22.452 3°12.327 11.1 354 8.6 102390 82
2004-04-13 08:14:55 51°22.455 3°12.353 11 352 8.6 102390 82
2004-04-13 08:15:01 51°22.46 3°12.391 11.1 351 8.6 102390 82
2004-04-13 08:15:06 51°22.464 3°12.422 11 354 8.6 102390 83
2004-04-13 08:15:11 51°22.468 3°12.454 11 350 8.6 102390 83
2004-04-13 08:15:15 51°22.471 3°12.479 11.6 351 8.6 102390 83
2004-04-13 08:15:21 51°22.476 3°12.517 10.7 351 8.6 102390 83
2004-04-13 08:15:25 51°22.48 3°12.543 11.2 350 8.6 102390 82
2004-04-13 08:15:30 51°22.484 3°12.574 10.9 354 8.6 102390 82
2004-04-13 08:15:35 51°22.488 3°12.606 10.6 352 8.6 102390 82
2004-04-13 08:15:41 51°22.493 3°12.644 10.9 356 8.6 102390 82
2004-04-13 08:15:46 51°22.497 3°12.675 11.5 354 8.6 102390 82
2004-04-13 08:15:51 51°22.501 3°12.707 11.1 356 8.6 102390 82
2004-04-13 08:15:55 51°22.504 3°12.732 11 351 8.6 102390 82
2004-04-13 08:16:01 51°22.509 3°12.769 10.6 353 8.6 102390 82
2004-04-13 08:16:06 51°22.513 3°12.801 11 353 8.6 102390 82
2004-04-13 08:16:11 51°22.518 3°12.832 11.2 356 8.6 102390 82
2004-04-13 08:16:15 51°22.521 3°12.857 10.6 354 8.6 102390 82
2004-04-13 08:16:21 51°22.526 3°12.894 11.5 355 8.6 102390 82
2004-04-13 08:16:25 51°22.53 3°12.918 10.7 354 8.6 102390 82
2004-04-13 08:16:30 51°22.536 3°12.949 10.6 356 8.6 102390 82
2004-04-13 08:16:35 51°22.541 3°12.98 10.4 354 8.6 102390 82
2004-04-13 08:16:41 51°22.548 3°13.016 10.8 353 8.6 102390 82
2004-04-13 08:16:46 51°22.553 3°13.047 10.6 352 8.6 102400 82
2004-04-13 08:16:51 51°22.559 3°13.077 10.3 356 8.6 102400 82
2004-04-13 08:16:55 51°22.563 3°13.102 11 356 8.6 102390 82
2004-04-13 08:17:01 51°22.57 3°13.138 11.6 355 8.6 102390 82
2004-04-13 08:17:06 51°22.575 3°13.169 11.5 351 8.6 102390 82
2004-04-13 08:17:11 51°22.581 3°13.199 10.5 358 8.6 102390 82
2004-04-13 08:17:15 51°22.585 3°13.224 10.9 353 8.6 102390 82
2004-04-13 08:17:21 51°22.592 3°13.26 10.5 356 8.6 102390 82
2004-04-13 08:17:25 51°22.596 3°13.285 10.2 355 8.6 102400 82
2004-04-13 08:17:31 51°22.603 3°13.322 10.8 355 8.6 102400 82
2004-04-13 08:17:36 51°22.608 3°13.352 11 354 8.6 102390 82
2004-04-13 08:17:41 51°22.614 3°13.383 10.5 353 8.6 102390 82
2004-04-13 08:17:46 51°22.619 3°13.414 11 352 8.6 102390 82
2004-04-13 08:17:51 51°22.624 3°13.445 10.8 352 8.6 102390 82
2004-04-13 08:17:55 51°22.629 3°13.469 10.1 351 8.6 102390 82
2004-04-13 08:18:01 51°22.636 3°13.505 10.9 356 8.6 102390 82
2004-04-13 08:18:06 51°22.641 3°13.536 11 354 8.6 102390 82
2004-04-13 08:18:11 51°22.647 3°13.566 10.8 354 8.6 102390 82
2004-04-13 08:18:15 51°22.651 3°13.59 10.4 356 8.6 102390 82
2004-04-13 08:18:21 51°22.658 3°13.627 11 357 8.6 102390 82
2004-04-13 08:18:25 51°22.663 3°13.652 10.4 355 8.6 102390 82
2004-04-13 08:18:31 51°22.669 3°13.688 11 354 8.6 102390 82
2004-04-13 08:18:35 51°22.674 3°13.712 10.2 354 8.6 102390 82
2004-04-13 08:18:41 51°22.68 3°13.749 10.7 354 8.6 102390 82
2004-04-13 08:18:46 51°22.686 3°13.78 11.1 355 8.6 102390 82
2004-04-13 08:18:51 51°22.691 3°13.811 11 354 8.6 102390 82
2004-04-13 08:18:55 51°22.696 3°13.835 10.2 354 8.6 102400 82
2004-04-13 08:19:01 51°22.702 3°13.871 11.2 354 8.6 102400 82
2004-04-13 08:19:06 51°22.708 3°13.902 10.5 355 8.6 102390 82
2004-04-13 08:19:11 51°22.713 3°13.932 11.1 352 8.6 102390 82
2004-04-13 08:19:15 51°22.718 3°13.956 10.3 355 8.6 102390 82
2004-04-13 08:19:21 51°22.725 3°13.993 11 352 8.6 102390 82
2004-04-13 08:19:25 51°22.729 3°14.017 10.2 356 8.6 102390 82
2004-04-13 08:19:31 51°22.735 3°14.054 11.6 354 8.6 102390 82
2004-04-13 08:19:35 51°22.74 3°14.079 10.9 354 8.6 102400 82
2004-04-13 08:19:41 51°22.746 3°14.115 10.5 354 8.6 102400 82
2004-04-13 08:19:45 51°22.75 3°14.139 10.8 353 8.6 102390 82
2004-04-13 08:19:51 51°22.757 3°14.176 11 354 8.6 102390 82
2004-04-13 08:19:55 51°22.761 3°14.2 11.2 353 8.6 102390 82
2004-04-13 08:20:01 51°22.768 3°14.236 10.2 355 8.6 102390 82
2004-04-13 08:20:06 51°22.774 3°14.267 10.4 358 8.6 102400 82
2004-04-13 08:20:11 51°22.78 3°14.297 10.5 355 8.6 102400 82
2004-04-13 08:20:16 51°22.786 3°14.327 10.4 357 8.6 102390 82
2004-04-13 08:20:21 51°22.791 3°14.357 10.8 355 8.6 102390 82
2004-04-13 08:20:25 51°22.796 3°14.381 10.6 355 8.6 102390 82
2004-04-13 08:20:30 51°22.801 3°14.412 10.6 356 8.6 102390 82
2004-04-13 08:20:35 51°22.806 3°14.443 10.4 355 8.6 102390 82
2004-04-13 08:20:41 51°22.813 3°14.479 10.8 355 8.6 102390 82
2004-04-13 08:20:45 51°22.817 3°14.503 11.1 354 8.6 102400 82
2004-04-13 08:20:51 51°22.824 3°14.54 9.7 359 8.6 102400 82
2004-04-13 08:20:55 51°22.828 3°14.564 11.4 354 8.6 102390 82
2004-04-13 08:21:01 51°22.835 3°14.6 11 354 8.6 102390 82
2004-04-13 08:21:05 51°22.839 3°14.624 10.3 353 8.6 102390 82
2004-04-13 08:21:11 51°22.846 3°14.661 10.3 355 8.6 102390 82
2004-04-13 08:21:15 51°22.85 3°14.686 10.7 353 8.6 102390 82
2004-04-13 08:21:21 51°22.857 3°14.722 10.2 356 8.6 102390 82
2004-04-13 08:21:25 51°22.861 3°14.747 10.9 356 8.6 102400 82
2004-04-13 08:21:31 51°22.868 3°14.783 10.4 353 8.6 102400 82
2004-04-13 08:21:35 51°22.872 3°14.808 11.1 351 8.6 102390 82
2004-04-13 08:21:41 51°22.879 3°14.844 10.6 355 8.6 102390 82
2004-04-13 08:21:46 51°22.884 3°14.875 10.1 351 8.6 102390 82
2004-04-13 08:21:51 51°22.889 3°14.905 10.3 353 8.6 102390 82
2004-04-13 08:21:55 51°22.893 3°14.929 10 352 8.6 102390 82
2004-04-13 08:22:01 51°22.9 3°14.966 9.9 354 8.6 102390 82
2004-04-13 08:22:05 51°22.903 3°14.991 10.4 352 8.6 102390 82
2004-04-13 08:22:11 51°22.91 3°15.028 10.8 358 8.6 102390 82
2004-04-13 08:22:15 51°22.914 3°15.052 10.9 355 8.6 102400 82
2004-04-13 08:22:21 51°22.92 3°15.088 10.1 354 8.6 102400 82
2004-04-13 08:22:26 51°22.926 3°15.119 10.6 354 8.6 102400 82
2004-04-13 08:22:31 51°22.931 3°15.149 10.9 355 8.6 102400 82
2004-04-13 08:22:35 51°22.935 3°15.174 10.6 352 8.6 102390 82
2004-04-13 08:22:41 51°22.942 3°15.211 9.8 355 8.6 102390 82
2004-04-13 08:22:46 51°22.947 3°15.241 10.2 349 8.6 102400 82
2004-04-13 08:22:51 51°22.953 3°15.271 10.5 354 8.6 102400 82
2004-04-13 08:22:56 51°22.958 3°15.301 9.9 355 8.6 102390 82
2004-04-13 08:23:01 51°22.964 3°15.332 10.6 355 8.6 102390 82
2004-04-13 08:23:05 51°22.968 3°15.356 10.5 352 8.6 102390 82
2004-04-13 08:23:11 51°22.974 3°15.393 10.5 354 8.6 102390 82
2004-04-13 08:23:16 51°22.98 3°15.423 10.7 354 8.6 102400 82
2004-04-13 08:23:21 51°22.984 3°15.454 10.5 356 8.6 102400 82
2004-04-13 08:23:25 51°22.989 3°15.478 10.4 351 8.6 102390 82
2004-04-13 08:23:31 51°22.995 3°15.514 10.5 351 8.6 102390 82
2004-04-13 08:23:35 51°23 3°15.538 10.3 354 8.6 102400 82
2004-04-13 08:23:41 51°23.007 3°15.575 10.3 354 8.6 102400 82
2004-04-13 08:23:46 51°23.012 3°15.605 10.8 351 8.7 102400 82
2004-04-13 08:23:51 51°23.018 3°15.635 10.1 353 8.7 102400 82
2004-04-13 08:23:56 51°23.022 3°15.666 10.5 352 8.7 102400 82
2004-04-13 08:24:01 51°23.027 3°15.697 10.3 351 8.7 102400 82
2004-04-13 08:24:06 51°23.03 3°15.728 10 348 8.7 102400 82
2004-04-13 08:24:11 51°23.034 3°15.759 10.3 351 8.7 102400 82
2004-04-13 08:24:15 51°23.036 3°15.783 10.4 351 8.7 102390 82
2004-04-13 08:24:21 51°23.04 3°15.82 10.4 348 8.7 102390 82
2004-04-13 08:24:26 51°23.043 3°15.852 9.9 349 8.7 102390 82
2004-04-13 08:24:31 51°23.047 3°15.883 10 352 8.7 102390 82
2004-04-13 08:24:36 51°23.05 3°15.913 10 350 8.7 102390 82
2004-04-13 08:24:41 51°23.053 3°15.944 10.7 350 8.7 102390 82
2004-04-13 08:24:46 51°23.057 3°15.975 9.4 351 8.7 102400 82
2004-04-13 08:24:51 51°23.06 3°16.006 10.1 350 8.7 102400 82
2004-04-13 08:24:55 51°23.062 3°16.03 10 350 8.7 102400 82
2004-04-13 08:25:01 51°23.066 3°16.068 10.7 351 8.7 102400 82
2004-04-13 08:25:06 51°23.07 3°16.099 10.6 350 8.7 102400 82
2004-04-13 08:25:11 51°23.073 3°16.129 10.5 349 8.7 102400 82
2004-04-13 08:25:15 51°23.076 3°16.154 9.6 349 8.7 102400 82
2004-04-13 08:25:21 51°23.079 3°16.191 9.5 349 8.7 102400 82
2004-04-13 08:25:26 51°23.083 3°16.221 9.6 348 8.7 102400 82
2004-04-13 08:25:31 51°23.086 3°16.252 10.5 351 8.7 102400 82
2004-04-13 08:25:36 51°23.089 3°16.283 10.2 350 8.7 102400 82
2004-04-13 08:25:41 51°23.093 3°16.313 10 353 8.7 102400 82
2004-04-13 08:25:45 51°23.095 3°16.338 10.6 349 8.7 102400 82
2004-04-13 08:25:51 51°23.1 3°16.375 10.2 351 8.7 102400 82
2004-04-13 08:25:55 51°23.102 3°16.399 10.8 351 8.7 102400 82
2004-04-13 08:26:01 51°23.106 3°16.436 10.6 349 8.7 102400 82
2004-04-13 08:26:05 51°23.109 3°16.461 9.4 350 8.7 102400 82
2004-04-13 08:26:11 51°23.113 3°16.498 10.1 348 8.7 102400 82
2004-04-13 08:26:15 51°23.116 3°16.522 9.8 349 8.7 102400 82
2004-04-13 08:26:21 51°23.12 3°16.559 10 348 8.7 102400 82
2004-04-13 08:26:25 51°23.123 3°16.584 10.2 351 8.7 102390 82
2004-04-13 08:26:31 51°23.127 3°16.621 9.8 346 8.7 102390 82
2004-04-13 08:26:35 51°23.129 3°16.646 9.8 349 8.7 102400 82
2004-04-13 08:26:41 51°23.133 3°16.683 10.1 351 8.7 102400 82
2004-04-13 08:26:45 51°23.136 3°16.708 10.6 349 8.7 102400 82
2004-04-13 08:26:51 51°23.14 3°16.745 10 350 8.7 102400 82
2004-04-13 08:26:55 51°23.142 3°16.769 10 350 8.7 102390 82
2004-04-13 08:27:01 51°23.147 3°16.806 10.3 350 8.7 102390 82
2004-04-13 08:27:05 51°23.149 3°16.831 9.7 351 8.7 102400 82
2004-04-13 08:27:11 51°23.154 3°16.869 9.7 348 8.7 102400 82